Time;durP1;ratioP1;P1;durP2;ratioP2;P2;SDS_P1;SDS_P2;PMS_P1;PMS_P2;Temp;Humidity;BMP_temperature;BMP_pressure;BME280_temperature;BME280_humidity;BME280_pressure;Samples;Min_cycle;Max_cycle;Signal;HPM_P1;HPM_P2
2022/04/10 00:01:40;;;;;;;;;;;13.80;99.90;;;;;;5071600;28;19978;-67
2022/04/10 00:04:06;;;;;;;;;;;13.90;99.90;;;;;;5071590;28;19908;-68
2022/04/10 00:06:32;;;;;;;;;;;14.00;99.90;;;;;;5072060;28;19909;-68
2022/04/10 00:08:58;;;;;;;;;;;13.90;99.90;;;;;;5071931;28;20345;-67
2022/04/10 00:11:24;;;;;;;;;;;13.90;99.90;;;;;;5071823;28;19970;-68
2022/04/10 00:13:50;;;;;;;;;;;14.00;99.90;;;;;;5071917;28;20321;-67
2022/04/10 00:16:16;;;;;;;;;;;13.90;99.90;;;;;;5071938;28;19951;-68
2022/04/10 00:18:42;;;;;;;;;;;13.90;99.90;;;;;;5071944;28;19913;-67
2022/04/10 00:21:08;;;;;;;;;;;13.90;99.90;;;;;;5071307;28;19928;-68
2022/04/10 00:23:34;;;;;;;;;;;13.90;99.90;;;;;;5071551;28;19909;-67
2022/04/10 00:26:00;;;;;;;;;;;14.00;99.90;;;;;;5072012;28;19908;-69
2022/04/10 00:28:25;;;;;;;;;;;14.00;99.90;;;;;;5071735;28;19916;-68
2022/04/10 00:30:51;;;;;;;;;;;13.90;99.90;;;;;;5071858;28;19961;-68
2022/04/10 00:33:17;;;;;;;;;;;14.00;99.90;;;;;;5071437;28;19984;-68
2022/04/10 00:35:43;;;;;;;;;;;14.00;99.90;;;;;;5071719;28;19923;-68
2022/04/10 00:38:09;;;;;;;;;;;14.00;99.90;;;;;;5071302;28;19962;-68
2022/04/10 00:40:35;;;;;;;;;;;14.00;99.90;;;;;;5071464;28;19913;-68
2022/04/10 00:43:01;;;;;;;;;;;14.00;99.90;;;;;;5071304;28;19999;-68
2022/04/10 00:45:27;;;;;;;;;;;14.00;99.90;;;;;;5071523;28;20045;-69
2022/04/10 00:47:52;;;;;;;;;;;14.00;99.90;;;;;;5071297;28;20023;-68
2022/04/10 00:50:19;;;;;;;;;;;14.00;99.90;;;;;;5071265;28;19916;-68
2022/04/10 00:52:46;;;;;;;;;;;13.90;99.90;;;;;;5071622;28;19916;-67
2022/04/10 00:55:13;;;;;;;;;;;13.90;99.90;;;;;;5071134;28;20016;-68
2022/04/10 00:57:39;;;;;;;;;;;13.90;99.90;;;;;;5071383;28;20013;-67
2022/04/10 01:00:06;;;;;;;;;;;13.80;99.90;;;;;;5071205;28;19959;-68
2022/04/10 01:02:32;;;;;;;;;;;13.80;99.90;;;;;;5070910;28;19919;-68
2022/04/10 01:04:57;;;;;;;;;;;13.70;99.90;;;;;;5071450;28;19995;-68
2022/04/10 01:07:24;;;;;;;;;;;13.70;99.90;;;;;;5052659;28;19916;-67
2022/04/10 01:09:50;;;;;;;;;;;13.60;99.90;;;;;;5070938;28;19928;-68
2022/04/10 01:12:16;;;;;;;;;;;13.60;99.90;;;;;;5070840;28;19913;-66
2022/04/10 01:14:42;;;;;;;;;;;13.60;99.90;;;;;;5071151;28;20364;-67
2022/04/10 01:17:09;;;;;;;;;;;13.50;99.90;;;;;;5071120;28;20004;-67
2022/04/10 01:19:37;;;;;;;;;;;13.50;99.90;;;;;;5070842;28;19931;-68
2022/04/10 01:22:03;;;;;;;;;;;13.40;99.90;;;;;;5071000;28;19917;-68
2022/04/10 01:24:29;;;;;;;;;;;13.50;99.90;;;;;;5071052;28;19953;-68
2022/04/10 01:26:55;;;;;;;;;;;13.50;99.90;;;;;;5071109;28;19915;-67
2022/04/10 01:29:21;;;;;;;;;;;13.50;99.90;;;;;;5073899;28;19928;-67
2022/04/10 01:31:47;;;;;;;;;;;13.50;99.90;;;;;;5074698;28;20037;-67
2022/04/10 01:34:14;;;;;;;;;;;13.50;99.90;;;;;;5074246;28;19908;-67
2022/04/10 01:36:41;;;;;;;;;;;13.60;99.90;;;;;;5074392;28;19909;-67
2022/04/10 01:39:07;;;;;;;;;;;13.60;99.90;;;;;;5074151;28;19956;-67
2022/04/10 01:41:36;;;;;;;;;;;13.60;99.90;;;;;;5074437;28;20087;-68
2022/04/10 01:44:03;;;;;;;;;;;13.60;99.90;;;;;;5074202;28;20233;-68
2022/04/10 01:46:29;;;;;;;;;;;13.60;99.90;;;;;;5073954;28;20003;-67
2022/04/10 01:48:55;;;;;;;;;;;13.60;99.90;;;;;;5074337;28;19908;-67
2022/04/10 01:51:22;;;;;;;;;;;13.60;99.90;;;;;;5074124;28;19909;-68
2022/04/10 01:53:48;;;;;;;;;;;13.50;99.90;;;;;;5074107;28;19919;-67
2022/04/10 01:56:14;;;;;;;;;;;13.50;99.90;;;;;;5074147;28;19909;-67
2022/04/10 01:58:41;;;;;;;;;;;13.50;99.90;;;;;;5073948;28;19928;-67
2022/04/10 02:01:08;;;;;;;;;;;13.50;99.90;;;;;;5073720;28;19916;-67
2022/04/10 02:03:34;;;;;;;;;;;13.40;99.90;;;;;;5074299;28;19966;-67
2022/04/10 02:06:00;;;;;;;;;;;13.40;99.90;;;;;;5073831;28;20313;-67
2022/04/10 02:08:27;;;;;;;;;;;13.40;99.90;;;;;;5074036;28;20058;-66
2022/04/10 02:10:53;;;;;;;;;;;13.40;99.90;;;;;;5073882;28;19912;-67
2022/04/10 02:13:19;;;;;;;;;;;13.40;99.90;;;;;;5073608;28;19986;-67
2022/04/10 02:15:45;;;;;;;;;;;13.50;99.90;;;;;;5073609;28;19909;-67
2022/04/10 02:18:11;;;;;;;;;;;13.40;99.90;;;;;;5073728;28;20426;-68
2022/04/10 02:20:37;;;;;;;;;;;13.40;99.90;;;;;;5055127;28;19920;-68
2022/04/10 02:23:03;;;;;;;;;;;13.30;99.90;;;;;;5073516;28;19909;-68
2022/04/10 02:25:29;;;;;;;;;;;13.30;99.90;;;;;;5073595;28;20284;-68
2022/04/10 02:27:55;;;;;;;;;;;13.20;99.90;;;;;;5073689;28;20303;-68
2022/04/10 02:30:22;;;;;;;;;;;13.20;99.90;;;;;;5073379;28;19912;-67
2022/04/10 02:32:48;;;;;;;;;;;13.20;99.90;;;;;;5073113;28;19932;-68
2022/04/10 02:35:14;;;;;;;;;;;13.20;99.90;;;;;;5073218;28;19915;-67
2022/04/10 02:37:40;;;;;;;;;;;13.20;99.90;;;;;;5073016;28;19908;-67
2022/04/10 02:40:07;;;;;;;;;;;13.10;99.90;;;;;;5072893;28;19935;-68
2022/04/10 02:42:36;;;;;;;;;;;13.10;99.90;;;;;;5073223;28;20012;-68
2022/04/10 02:45:03;;;;;;;;;;;13.10;99.90;;;;;;5073340;28;19909;-66
2022/04/10 02:47:30;;;;;;;;;;;13.10;99.90;;;;;;5054681;28;19916;-66
2022/04/10 02:49:57;;;;;;;;;;;13.10;99.90;;;;;;5073140;28;20309;-67
2022/04/10 02:52:23;;;;;;;;;;;13.00;99.90;;;;;;5072823;28;19909;-67
2022/04/10 02:54:49;;;;;;;;;;;13.00;99.90;;;;;;5072892;28;20022;-66
2022/04/10 02:57:15;;;;;;;;;;;13.00;99.90;;;;;;5072741;28;19908;-66
2022/04/10 02:59:40;;;;;;;;;;;13.00;99.90;;;;;;5072684;28;20303;-66
2022/04/10 03:02:07;;;;;;;;;;;13.00;99.90;;;;;;5073045;28;19924;-67
2022/04/10 03:04:32;;;;;;;;;;;13.00;99.90;;;;;;5072850;28;19947;-67
2022/04/10 03:06:58;;;;;;;;;;;12.90;99.90;;;;;;5072718;28;19916;-67
2022/04/10 03:09:24;;;;;;;;;;;13.00;99.90;;;;;;5072688;28;20392;-67
2022/04/10 03:11:50;;;;;;;;;;;12.90;99.90;;;;;;5072745;28;19915;-67
2022/04/10 03:14:16;;;;;;;;;;;12.90;99.90;;;;;;5072440;28;20003;-67
2022/04/10 03:16:45;;;;;;;;;;;12.90;99.90;;;;;;5072739;28;19916;-66
2022/04/10 03:19:10;;;;;;;;;;;12.90;99.90;;;;;;5054285;28;20057;-67
2022/04/10 03:21:36;;;;;;;;;;;12.80;99.90;;;;;;5072152;28;20474;-68
2022/04/10 03:24:03;;;;;;;;;;;12.70;99.90;;;;;;5072515;28;19997;-67
2022/04/10 03:26:29;;;;;;;;;;;12.80;99.90;;;;;;5072306;28;19919;-67
2022/04/10 03:28:55;;;;;;;;;;;12.80;99.90;;;;;;5072667;28;19952;-67
2022/04/10 03:31:22;;;;;;;;;;;12.80;99.90;;;;;;5072180;28;19970;-67
2022/04/10 03:33:48;;;;;;;;;;;12.80;99.90;;;;;;5072194;28;20015;-67
2022/04/10 03:36:14;;;;;;;;;;;12.70;99.90;;;;;;5072564;28;19913;-67
2022/04/10 03:38:40;;;;;;;;;;;12.70;99.90;;;;;;5072046;28;20012;-67
2022/04/10 03:41:06;;;;;;;;;;;12.70;99.90;;;;;;5072117;28;19921;-67
2022/04/10 03:43:34;;;;;;;;;;;12.70;99.90;;;;;;5072155;28;20237;-66
2022/04/10 03:46:01;;;;;;;;;;;12.60;99.90;;;;;;5071811;28;19908;-68
2022/04/10 03:48:27;;;;;;;;;;;12.60;99.90;;;;;;5072117;28;20438;-66
2022/04/10 03:50:53;;;;;;;;;;;12.60;99.90;;;;;;5071351;28;19916;-67
2022/04/10 03:53:19;;;;;;;;;;;12.60;99.90;;;;;;5072029;28;19924;-67
2022/04/10 03:55:45;;;;;;;;;;;12.60;99.90;;;;;;5071905;28;19908;-67
2022/04/10 03:58:11;;;;;;;;;;;12.60;99.90;;;;;;5071954;28;20369;-66
2022/04/10 04:00:37;;;;;;;;;;;12.60;99.90;;;;;;5071782;28;19916;-67
2022/04/10 04:03:02;;;;;;;;;;;12.60;99.90;;;;;;5071907;28;19957;-67
2022/04/10 04:05:28;;;;;;;;;;;12.60;99.70;;;;;;5071716;28;19909;-68
2022/04/10 04:07:54;;;;;;;;;;;12.60;99.60;;;;;;5071673;28;20027;-66
2022/04/10 04:10:20;;;;;;;;;;;12.60;99.80;;;;;;5071881;28;19909;-68
2022/04/10 04:12:46;;;;;;;;;;;12.60;99.90;;;;;;5071679;28;20335;-67
2022/04/10 04:15:12;;;;;;;;;;;12.60;99.90;;;;;;5071592;28;19966;-68
2022/04/10 04:17:38;;;;;;;;;;;12.40;99.90;;;;;;5071437;28;20015;-67
2022/04/10 04:20:07;;;;;;;;;;;12.30;99.90;;;;;;5071530;28;19935;-67
2022/04/10 04:22:33;;;;;;;;;;;12.20;99.90;;;;;;5071445;28;19989;-67
2022/04/10 04:24:59;;;;;;;;;;;12.10;99.90;;;;;;5071467;28;19913;-67
2022/04/10 04:27:25;;;;;;;;;;;12.00;99.90;;;;;;5071484;28;19916;-67
2022/04/10 04:29:51;;;;;;;;;;;12.00;99.90;;;;;;5071396;28;19908;-66
2022/04/10 04:32:17;;;;;;;;;;;12.00;99.90;;;;;;5071645;28;20317;-67
2022/04/10 04:34:42;;;;;;;;;;;12.10;99.90;;;;;;5071495;28;20001;-68
2022/04/10 04:37:09;;;;;;;;;;;12.10;99.90;;;;;;5071555;28;20003;-68
2022/04/10 04:39:35;;;;;;;;;;;12.10;99.90;;;;;;5071494;28;19908;-66
2022/04/10 04:42:01;;;;;;;;;;;12.10;99.90;;;;;;5071169;28;19924;-67
2022/04/10 04:44:30;;;;;;;;;;;12.10;99.90;;;;;;5071591;28;19909;-68
2022/04/10 04:46:57;;;;;;;;;;;12.00;99.90;;;;;;5071419;28;19912;-67
2022/04/10 04:49:23;;;;;;;;;;;12.00;99.90;;;;;;5071304;28;19919;-67
2022/04/10 04:51:49;;;;;;;;;;;12.10;99.90;;;;;;5071441;28;19999;-66
2022/04/10 04:54:14;;;;;;;;;;;12.10;99.90;;;;;;5053103;28;20002;-64
2022/04/10 04:56:40;;;;;;;;;;;12.10;99.90;;;;;;5053204;28;20337;-67
2022/04/10 04:59:06;;;;;;;;;;;12.20;99.90;;;;;;5071480;28;20370;-67
2022/04/10 05:01:32;;;;;;;;;;;12.20;99.90;;;;;;5071476;28;19973;-67
2022/04/10 05:03:57;;;;;;;;;;;12.20;99.90;;;;;;5055853;28;20364;-67
2022/04/10 05:06:25;;;;;;;;;;;12.30;99.90;;;;;;5056948;28;20008;-66
2022/04/10 05:08:51;;;;;;;;;;;12.40;99.90;;;;;;5074872;28;19908;-70
2022/04/10 05:11:17;;;;;;;;;;;12.40;99.90;;;;;;5074230;28;20311;-68
2022/04/10 05:13:43;;;;;;;;;;;12.50;99.90;;;;;;5056279;28;20119;-67
2022/04/10 05:16:08;;;;;;;;;;;12.60;99.90;;;;;;5073851;28;20289;-66
2022/04/10 05:18:34;;;;;;;;;;;12.70;99.90;;;;;;5074698;28;19916;-67
2022/04/10 05:21:00;;;;;;;;;;;12.80;99.90;;;;;;5074982;28;19963;-66
2022/04/10 05:23:26;;;;;;;;;;;12.90;99.90;;;;;;5074536;28;19988;-67
2022/04/10 05:25:53;;;;;;;;;;;13.70;99.90;;;;;;5075022;28;19943;-66
2022/04/10 05:28:18;;;;;;;;;;;15.30;99.60;;;;;;5056417;28;19908;-67
2022/04/10 05:30:44;;;;;;;;;;;17.30;97.20;;;;;;5075107;28;19908;-67
2022/04/10 05:33:11;;;;;;;;;;;18.80;93.80;;;;;;5075437;28;19997;-68
2022/04/10 05:35:37;;;;;;;;;;;20.30;91.90;;;;;;5056603;28;19908;-68
2022/04/10 05:38:03;;;;;;;;;;;22.20;88.80;;;;;;5056844;28;19916;-69
2022/04/10 05:40:29;;;;;;;;;;;23.60;83.80;;;;;;5074674;28;19916;-68
2022/04/10 05:42:55;;;;;;;;;;;24.60;79.60;;;;;;5074522;28;20352;-69
2022/04/10 05:45:21;;;;;;;;;;;25.60;76.60;;;;;;5074837;28;20190;-69
2022/04/10 05:47:46;;;;;;;;;;;26.20;74.40;;;;;;5074211;28;20006;-68
2022/04/10 05:50:13;;;;;;;;;;;27.10;72.80;;;;;;5073758;28;19915;-68
2022/04/10 05:52:40;;;;;;;;;;;27.10;68.00;;;;;;5073934;28;19995;-69
2022/04/10 05:55:06;;;;;;;;;;;26.60;70.00;;;;;;5073713;28;19918;-68
2022/04/10 05:57:32;;;;;;;;;;;27.50;67.90;;;;;;5055359;28;20334;-67
2022/04/10 05:59:58;;;;;;;;;;;26.90;65.90;;;;;;5073539;28;19920;-68
2022/04/10 06:02:24;;;;;;;;;;;26.20;67.30;;;;;;5074072;28;20024;-68
2022/04/10 06:04:49;;;;;;;;;;;27.80;65.90;;;;;;5074792;28;19912;-68
2022/04/10 06:07:15;;;;;;;;;;;29.30;63.40;;;;;;5074210;28;19970;-69
2022/04/10 06:09:41;;;;;;;;;;;30.00;62.00;;;;;;5073789;28;20380;-69
2022/04/10 06:12:07;;;;;;;;;;;31.10;60.60;;;;;;5074319;28;19935;-69
2022/04/10 06:14:34;;;;;;;;;;;31.00;58.80;;;;;;5073407;28;19919;-68
2022/04/10 06:16:59;;;;;;;;;;;30.80;56.90;;;;;;5074027;28;20288;-67
2022/04/10 06:19:29;;;;;;;;;;;31.30;56.90;;;;;;5074566;28;19908;-67
2022/04/10 06:21:55;;;;;;;;;;;30.40;57.30;;;;;;5074505;28;19995;-69
2022/04/10 06:24:21;;;;;;;;;;;30.60;57.50;;;;;;5074068;28;20364;-69
2022/04/10 06:26:49;;;;;;;;;;;31.60;56.80;;;;;;5074460;28;19909;-68
2022/04/10 06:29:15;;;;;;;;;;;31.80;54.40;;;;;;5074065;28;19978;-69
2022/04/10 06:31:41;;;;;;;;;;;31.60;55.30;;;;;;5073973;28;20221;-69
2022/04/10 06:34:07;;;;;;;;;;;31.60;55.10;;;;;;5074104;28;20393;-66
2022/04/10 06:36:33;;;;;;;;;;;31.50;54.40;;;;;;5073877;28;19920;-66
2022/04/10 06:38:59;;;;;;;;;;;32.10;54.70;;;;;;5073758;28;19908;-70
2022/04/10 06:41:25;;;;;;;;;;;32.30;54.10;;;;;;5073888;28;19970;-72
2022/04/10 06:43:50;;;;;;;;;;;32.70;53.20;;;;;;5066590;28;19909;-66
2022/04/10 06:46:16;;;;;;;;;;;32.70;52.60;;;;;;5073492;28;19919;-69
2022/04/10 06:48:42;;;;;;;;;;;32.30;52.90;;;;;;5073431;28;19915;-67
2022/04/10 06:51:08;;;;;;;;;;;33.10;52.30;;;;;;5069626;28;19908;-67
2022/04/10 06:53:33;;;;;;;;;;;33.00;51.50;;;;;;5073668;28;20233;-67
2022/04/10 06:55:59;;;;;;;;;;;32.30;52.30;;;;;;5073480;28;19913;-67
2022/04/10 06:58:25;;;;;;;;;;;32.70;52.40;;;;;;5073599;28;19997;-67
2022/04/10 07:00:51;;;;;;;;;;;31.70;52.10;;;;;;5073107;28;19913;-67
2022/04/10 07:03:17;;;;;;;;;;;31.10;52.70;;;;;;5073224;28;19908;-67
2022/04/10 07:05:44;;;;;;;;;;;31.50;52.60;;;;;;5073126;28;19916;-69
2022/04/10 07:08:10;;;;;;;;;;;32.30;52.20;;;;;;5054944;28;19919;-67
2022/04/10 07:10:39;;;;;;;;;;;31.60;52.10;;;;;;5073664;28;19999;-69
2022/04/10 07:13:06;;;;;;;;;;;30.60;54.10;;;;;;5073025;28;19908;-67
2022/04/10 07:15:32;;;;;;;;;;;31.30;53.30;;;;;;5073446;28;19916;-67
2022/04/10 07:17:58;;;;;;;;;;;31.60;53.00;;;;;;5066715;28;19915;-65
2022/04/10 07:20:24;;;;;;;;;;;31.10;53.10;;;;;;5061360;28;19921;-66
2022/04/10 07:25:37;;;;;;;;;;;30.20;52.70;;;;;;5052712;28;20004;-65
2022/04/10 07:28:03;;;;;;;;;;;29.80;53.30;;;;;;5035019;28;19920;-66
2022/04/10 07:30:30;;;;;;;;;;;28.90;54.00;;;;;;5052682;28;20233;-66
2022/04/10 07:32:56;;;;;;;;;;;28.50;54.40;;;;;;5052684;28;19992;-67
2022/04/10 07:35:22;;;;;;;;;;;27.20;55.40;;;;;;5052481;28;19909;-66
2022/04/10 07:37:48;;;;;;;;;;;26.70;56.30;;;;;;5052409;28;19913;-67
2022/04/10 07:40:15;;;;;;;;;;;25.90;56.50;;;;;;5052331;28;19909;-67
2022/04/10 07:42:42;;;;;;;;;;;24.90;58.10;;;;;;5052557;28;20273;-67
2022/04/10 07:45:09;;;;;;;;;;;24.00;60.20;;;;;;5052597;28;20336;-65
2022/04/10 07:47:35;;;;;;;;;;;24.10;60.90;;;;;;5053214;28;19924;-66
2022/04/10 07:50:01;;;;;;;;;;;23.90;60.50;;;;;;5052294;28;19915;-67
2022/04/10 07:52:27;;;;;;;;;;;23.60;59.90;;;;;;5052911;28;20292;-67
2022/04/10 07:54:53;;;;;;;;;;;23.70;60.90;;;;;;5052370;28;20379;-66
2022/04/10 07:57:19;;;;;;;;;;;23.40;60.50;;;;;;5034267;28;19970;-67
2022/04/10 07:59:45;;;;;;;;;;;23.10;64.20;;;;;;5034305;28;19916;-67
2022/04/10 08:02:11;;;;;;;;;;;22.80;59.90;;;;;;5052041;28;19916;-67
2022/04/10 08:04:37;;;;;;;;;;;22.20;59.40;;;;;;5052494;28;19916;-67
2022/04/10 08:07:03;;;;;;;;;;;22.00;61.70;;;;;;5052107;28;20004;-67
2022/04/10 08:09:29;;;;;;;;;;;21.80;60.60;;;;;;5052675;28;20397;-67
2022/04/10 08:11:55;;;;;;;;;;;21.90;60.40;;;;;;5052096;28;20007;-66
2022/04/10 08:14:21;;;;;;;;;;;22.00;61.20;;;;;;5051739;28;20246;-67
2022/04/10 08:16:47;;;;;;;;;;;22.30;60.60;;;;;;5052099;28;19909;-67
2022/04/10 08:19:13;;;;;;;;;;;22.40;59.70;;;;;;5052266;28;19916;-66
2022/04/10 08:21:39;;;;;;;;;;;22.60;59.20;;;;;;5051977;28;19920;-67
2022/04/10 08:24:05;;;;;;;;;;;22.50;59.20;;;;;;5052535;28;19947;-66
2022/04/10 08:26:32;;;;;;;;;;;22.40;58.70;;;;;;5052346;28;19909;-67
2022/04/10 08:28:58;;;;;;;;;;;22.30;59.90;;;;;;5052606;28;19909;-66
2022/04/10 08:31:24;;;;;;;;;;;22.10;59.60;;;;;;5051974;28;19915;-68
2022/04/10 08:33:51;;;;;;;;;;;21.90;60.60;;;;;;5052205;28;19912;-67
2022/04/10 08:36:17;;;;;;;;;;;22.00;59.60;;;;;;5052001;28;19909;-67
2022/04/10 08:38:43;;;;;;;;;;;21.90;59.80;;;;;;5056310;28;19927;-67
2022/04/10 08:41:09;;;;;;;;;;;21.70;62.90;;;;;;5056055;28;19916;-68
2022/04/10 08:43:35;;;;;;;;;;;21.30;62.50;;;;;;5056327;28;19916;-69
2022/04/10 08:46:01;;;;;;;;;;;21.30;63.70;;;;;;5056207;28;19908;-68
2022/04/10 08:48:27;;;;;;;;;;;21.70;62.30;;;;;;5055486;28;20381;-68
2022/04/10 08:50:54;;;;;;;;;;;21.80;62.30;;;;;;5055073;28;19916;-67
2022/04/10 08:53:21;;;;;;;;;;;21.90;61.40;;;;;;5055607;28;19923;-67
2022/04/10 08:55:47;;;;;;;;;;;21.90;61.30;;;;;;5055532;28;20294;-68
2022/04/10 08:58:12;;;;;;;;;;;21.80;61.80;;;;;;5055681;28;19919;-67
2022/04/10 09:00:41;;;;;;;;;;;21.90;61.30;;;;;;5055486;28;19920;-67
2022/04/10 09:03:07;;;;;;;;;;;21.70;62.30;;;;;;5055596;28;20376;-68
2022/04/10 09:05:32;;;;;;;;;;;21.40;61.70;;;;;;5055160;28;19912;-68
2022/04/10 09:08:11;;;;;;;;;;;21.00;63.20;;;;;;5055091;28;19909;-68
2022/04/10 09:10:52;;;;;;;;;;;21.20;62.50;;;;;;5055195;28;19913;-68
2022/04/10 09:13:27;;;;;;;;;;;21.30;61.90;;;;;;5055042;28;19955;-67
2022/04/10 09:16:11;;;;;;;;;;;21.30;61.90;;;;;;5055438;28;19909;-69
2022/04/10 09:18:48;;;;;;;;;;;21.30;62.80;;;;;;5037150;28;19936;-67
2022/04/10 09:21:14;;;;;;;;;;;21.40;61.90;;;;;;5054723;28;19925;-68
2022/04/10 09:23:41;;;;;;;;;;;21.30;62.10;;;;;;5055227;28;19958;-69
2022/04/10 09:26:07;;;;;;;;;;;21.20;62.90;;;;;;5036794;28;19909;-68
2022/04/10 09:28:40;;;;;;;;;;;21.20;61.80;;;;;;5037232;28;19912;-68
2022/04/10 09:31:25;;;;;;;;;;;21.10;61.50;;;;;;5054802;28;19909;-67
2022/04/10 09:33:52;;;;;;;;;;;21.00;62.00;;;;;;5054722;28;19909;-68
2022/04/10 09:36:37;;;;;;;;;;;20.70;62.60;;;;;;5054631;28;20348;-68
2022/04/10 09:39:04;;;;;;;;;;;20.70;63.40;;;;;;5058260;28;19913;-66
2022/04/10 09:41:30;;;;;;;;;;;20.40;63.90;;;;;;5074557;28;19920;-68
2022/04/10 09:44:01;;;;;;;;;;;20.50;63.70;;;;;;5074380;28;19931;-69
2022/04/10 09:46:27;;;;;;;;;;;20.60;64.00;;;;;;5074734;28;19923;-69
2022/04/10 09:48:53;;;;;;;;;;;20.90;62.70;;;;;;5072935;28;19999;-68
2022/04/10 09:51:18;;;;;;;;;;;20.70;63.60;;;;;;5074468;28;20224;-68
2022/04/10 09:54:00;;;;;;;;;;;20.70;62.80;;;;;;5074371;28;19908;-69
2022/04/10 09:56:27;;;;;;;;;;;20.60;62.50;;;;;;5072591;28;19908;-69
2022/04/10 09:58:55;;;;;;;;;;;20.50;62.50;;;;;;5073466;28;20011;-70
2022/04/10 10:01:21;;;;;;;;;;;20.60;63.10;;;;;;5073580;28;19924;-68
2022/04/10 10:03:47;;;;;;;;;;;20.70;62.50;;;;;;5055291;28;19908;-69
2022/04/10 10:06:13;;;;;;;;;;;20.90;62.10;;;;;;5073569;28;20008;-69
2022/04/10 10:08:39;;;;;;;;;;;21.10;62.70;;;;;;5073429;28;19999;-67
2022/04/10 10:11:05;;;;;;;;;;;20.50;62.20;;;;;;5073960;28;19908;-69
2022/04/10 10:13:31;;;;;;;;;;;20.40;62.30;;;;;;5074035;28;19908;-69
2022/04/10 10:15:57;;;;;;;;;;;20.50;62.50;;;;;;5074040;28;20323;-68
2022/04/10 10:18:25;;;;;;;;;;;20.40;62.80;;;;;;5073991;28;19951;-69
2022/04/10 10:20:51;;;;;;;;;;;20.40;63.70;;;;;;5072634;28;19990;-70
2022/04/10 10:23:19;;;;;;;;;;;20.50;62.60;;;;;;5073937;28;19945;-69
2022/04/10 10:25:58;;;;;;;;;;;20.60;63.20;;;;;;5073941;28;19909;-70
2022/04/10 10:28:42;;;;;;;;;;;20.40;61.10;;;;;;5073641;28;20360;-69
2022/04/10 10:31:12;;;;;;;;;;;20.20;61.10;;;;;;5074147;28;20357;-69
2022/04/10 10:33:40;;;;;;;;;;;20.30;61.80;;;;;;5073903;28;19940;-69
2022/04/10 10:36:09;;;;;;;;;;;20.60;62.30;;;;;;5074023;28;20337;-69
2022/04/10 10:38:35;;;;;;;;;;;20.80;61.00;;;;;;5073642;28;19932;-70
2022/04/10 10:41:10;;;;;;;;;;;20.90;60.80;;;;;;5073581;28;19917;-69
2022/04/10 10:43:36;;;;;;;;;;;21.10;60.00;;;;;;5073417;28;19915;-69
2022/04/10 10:46:02;;;;;;;;;;;21.00;59.80;;;;;;5073300;28;19909;-69
2022/04/10 10:48:38;;;;;;;;;;;20.70;60.70;;;;;;5073253;28;19908;-69
2022/04/10 10:51:10;;;;;;;;;;;20.70;59.60;;;;;;5073948;28;20406;-68
2022/04/10 10:53:43;;;;;;;;;;;20.90;60.30;;;;;;5072427;28;19909;-69
2022/04/10 10:56:32;;;;;;;;;;;21.00;59.30;;;;;;5072176;28;19912;-69
2022/04/10 10:59:30;;;;;;;;;;;20.90;60.00;;;;;;5063803;28;19909;-71
2022/04/10 11:01:55;;;;;;;;;;;21.00;60.00;;;;;;5009478;28;19960;-70
2022/04/10 11:04:24;;;;;;;;;;;20.90;60.20;;;;;;5011041;28;19961;-69
2022/04/10 11:06:50;;;;;;;;;;;20.60;60.60;;;;;;5011009;28;20000;-70
2022/04/10 11:09:29;;;;;;;;;;;20.50;59.40;;;;;;5011411;28;19910;-70
2022/04/10 11:11:56;;;;;;;;;;;20.80;60.70;;;;;;5011399;28;20018;-70
2022/04/10 11:14:39;;;;;;;;;;;21.00;60.10;;;;;;4994482;28;19918;-69
2022/04/10 11:17:15;;;;;;;;;;;20.80;61.00;;;;;;5010920;28;19971;-69
2022/04/10 11:19:43;;;;;;;;;;;20.90;59.70;;;;;;5010653;28;19910;-69
2022/04/10 11:22:11;;;;;;;;;;;21.00;60.60;;;;;;4994218;28;20384;-70
2022/04/10 11:24:37;;;;;;;;;;;21.30;60.30;;;;;;4994309;28;20239;-70
2022/04/10 11:27:04;;;;;;;;;;;21.40;60.10;;;;;;5010661;28;19924;-70
2022/04/10 11:29:31;;;;;;;;;;;21.10;59.20;;;;;;5010967;28;19917;-70
2022/04/10 11:32:02;;;;;;;;;;;21.20;59.30;;;;;;5011000;28;19913;-69
2022/04/10 11:34:29;;;;;;;;;;;21.20;58.90;;;;;;5010686;28;20060;-70
2022/04/10 11:36:56;;;;;;;;;;;21.20;59.20;;;;;;5026956;28;19916;-69
2022/04/10 11:39:26;;;;;;;;;;;21.30;59.40;;;;;;5071911;28;20341;-69
2022/04/10 11:42:03;;;;;;;;;;;21.50;58.90;;;;;;5072628;28;20027;-69
2022/04/10 11:44:29;;;;;;;;;;;21.50;59.10;;;;;;5072371;28;19908;-69
2022/04/10 11:46:55;;;;;;;;;;;21.20;58.50;;;;;;5072290;28;19908;-69
2022/04/10 11:49:21;;;;;;;;;;;20.80;58.30;;;;;;5072251;28;20344;-69
2022/04/10 11:51:55;;;;;;;;;;;20.80;57.60;;;;;;5072173;28;20011;-69
2022/04/10 11:54:24;;;;;;;;;;;20.60;58.10;;;;;;5072369;28;19913;-68
2022/04/10 11:56:51;;;;;;;;;;;20.90;57.80;;;;;;5071979;28;19912;-69
2022/04/10 11:59:18;;;;;;;;;;;20.90;57.80;;;;;;5071933;28;19995;-69
2022/04/10 12:01:44;;;;;;;;;;;20.70;57.50;;;;;;5072275;28;19962;-69
2022/04/10 12:04:09;;;;;;;;;;;19.90;58.20;;;;;;5072251;28;19943;-70
2022/04/10 12:06:36;;;;;;;;;;;19.80;58.50;;;;;;5071730;28;19912;-70
2022/04/10 12:09:02;;;;;;;;;;;19.70;58.50;;;;;;5072221;28;19915;-70
2022/04/10 12:11:41;;;;;;;;;;;19.90;59.30;;;;;;5071804;28;19908;-70
2022/04/10 12:14:22;;;;;;;;;;;20.40;58.10;;;;;;5071578;28;19961;-70
2022/04/10 12:16:49;;;;;;;;;;;20.70;57.00;;;;;;5072060;28;19913;-69
2022/04/10 12:19:15;;;;;;;;;;;20.70;55.70;;;;;;5071839;28;20229;-69
2022/04/10 12:21:48;;;;;;;;;;;20.90;55.90;;;;;;5071497;28;19925;-69
2022/04/10 12:24:22;;;;;;;;;;;21.10;55.40;;;;;;5070797;28;21244;-69
2022/04/10 12:26:49;;;;;;;;;;;21.00;54.80;;;;;;5071472;28;19968;-69
2022/04/10 12:29:16;;;;;;;;;;;21.00;54.40;;;;;;5071694;28;19908;-70
2022/04/10 12:31:42;;;;;;;;;;;21.00;54.40;;;;;;5071500;28;19908;-70
2022/04/10 12:34:09;;;;;;;;;;;21.00;54.80;;;;;;5071849;28;19908;-70
2022/04/10 12:36:44;;;;;;;;;;;20.90;54.50;;;;;;5071479;28;20012;-69
2022/04/10 12:39:09;;;;;;;;;;;20.90;55.40;;;;;;5071750;28;20085;-69
2022/04/10 12:41:35;;;;;;;;;;;21.00;55.30;;;;;;5071182;28;20376;-70
2022/04/10 12:44:04;;;;;;;;;;;21.10;54.40;;;;;;5052931;28;19952;-69
2022/04/10 12:46:37;;;;;;;;;;;20.80;54.30;;;;;;5071364;28;19916;-69
2022/04/10 12:49:11;;;;;;;;;;;21.00;54.90;;;;;;5071670;28;20027;-69
2022/04/10 12:51:47;;;;;;;;;;;20.70;55.40;;;;;;5071262;28;20323;-69
2022/04/10 12:54:13;;;;;;;;;;;20.60;55.70;;;;;;5071335;28;20341;-69
2022/04/10 12:56:39;;;;;;;;;;;20.20;55.40;;;;;;5070938;28;19939;-69
2022/04/10 12:59:05;;;;;;;;;;;19.80;56.40;;;;;;5071387;28;20010;-69
2022/04/10 13:01:31;;;;;;;;;;;19.60;56.80;;;;;;5070964;28;19921;-70
2022/04/10 13:03:59;;;;;;;;;;;19.70;56.10;;;;;;5071262;28;19943;-68
2022/04/10 13:06:44;;;;;;;;;;;19.60;56.10;;;;;;5071169;28;19909;-69
2022/04/10 13:09:11;;;;;;;;;;;19.90;55.50;;;;;;5058406;28;20383;-69
2022/04/10 13:11:37;;;;;;;;;;;20.20;54.90;;;;;;5070539;28;20361;-69
2022/04/10 13:14:05;;;;;;;;;;;20.50;54.80;;;;;;5051150;28;19944;-69
2022/04/10 13:16:31;;;;;;;;;;;20.70;54.70;;;;;;5052693;28;19909;-69
2022/04/10 13:19:03;;;;;;;;;;;20.30;55.90;;;;;;5071405;28;19909;-69
2022/04/10 13:21:29;;;;;;;;;;;20.10;56.50;;;;;;5052583;28;20334;-65
2022/04/10 13:23:56;;;;;;;;;;;20.30;57.00;;;;;;5061702;28;20451;-69
2022/04/10 13:26:26;;;;;;;;;;;20.50;56.10;;;;;;5057155;28;19912;-68
2022/04/10 13:28:52;;;;;;;;;;;20.50;56.40;;;;;;5075231;28;20356;-67
2022/04/10 13:31:18;;;;;;;;;;;20.50;55.90;;;;;;5075064;28;19908;-69
2022/04/10 13:33:43;;;;;;;;;;;20.40;56.10;;;;;;5075118;28;19919;-69
2022/04/10 13:36:10;;;;;;;;;;;20.30;56.50;;;;;;5057181;28;19916;-67
2022/04/10 13:38:36;;;;;;;;;;;20.50;55.70;;;;;;5074974;28;19912;-69
2022/04/10 13:41:03;;;;;;;;;;;20.20;54.80;;;;;;5074770;28;19920;-69
2022/04/10 13:43:28;;;;;;;;;;;20.40;55.40;;;;;;5074860;28;19909;-69
2022/04/10 13:45:54;;;;;;;;;;;20.40;56.40;;;;;;5074893;28;19957;-70
2022/04/10 13:48:20;;;;;;;;;;;20.50;56.60;;;;;;5074686;28;20002;-70
2022/04/10 13:50:46;;;;;;;;;;;20.50;56.00;;;;;;5073636;28;20082;-69
2022/04/10 13:53:12;;;;;;;;;;;20.40;55.50;;;;;;5054763;28;19915;-69
2022/04/10 13:55:38;;;;;;;;;;;20.50;55.00;;;;;;5073318;28;19928;-69
2022/04/10 13:58:03;;;;;;;;;;;20.70;55.00;;;;;;5073374;28;19909;-70
2022/04/10 14:00:29;;;;;;;;;;;20.80;54.50;;;;;;5073029;28;19919;-69
2022/04/10 14:02:55;;;;;;;;;;;20.70;55.30;;;;;;5073518;28;19916;-69
2022/04/10 14:05:21;;;;;;;;;;;20.70;55.50;;;;;;5072766;28;20332;-69
2022/04/10 14:07:47;;;;;;;;;;;20.60;55.90;;;;;;5073158;28;19908;-69
2022/04/10 14:10:12;;;;;;;;;;;20.70;56.00;;;;;;5073169;28;19996;-69
2022/04/10 14:12:39;;;;;;;;;;;20.60;56.00;;;;;;5054858;28;19908;-68
2022/04/10 14:15:05;;;;;;;;;;;20.30;56.20;;;;;;5073389;28;19909;-68
2022/04/10 14:17:31;;;;;;;;;;;20.30;55.50;;;;;;5073842;28;19919;-68
2022/04/10 14:19:57;;;;;;;;;;;20.40;56.60;;;;;;5074024;28;19997;-69